createdAt,value
2019-01-02T00:05:01.129Z,90.70
2019-01-02T00:13:32.440Z,90.90
2019-01-02T00:16:20.480Z,91.70
2019-01-02T00:27:42.659Z,93.80
2019-01-02T00:33:27.491Z,94.50
2019-01-02T00:41:59.933Z,94.50
2019-01-02T00:56:18.309Z,94.20
2019-01-02T00:59:28.046Z,94.50
2019-01-02T01:02:18.351Z,93.80
2019-01-02T01:17:15.224Z,94.20
2019-01-02T01:20:04.817Z,94.10
2019-01-02T01:31:54.877Z,94.40
2019-01-02T01:59:58.586Z,94.00
2019-01-02T02:44:13.324Z,94.70
2019-01-02T02:50:51.727Z,94.20
2019-01-02T03:02:50.640Z,93.80
2019-01-02T03:52:12.912Z,90.60
2019-01-02T03:55:54.507Z,90.00
2019-01-02T04:01:36.033Z,88.80
2019-01-02T04:12:07.818Z,85.40
2019-01-02T04:21:07.310Z,87.20
2019-01-02T04:23:41.187Z,86.20
2019-01-02T04:29:23.763Z,86.50
2019-01-02T04:31:56.669Z,86.80
2019-01-02T04:34:25.379Z,87.50
2019-01-02T04:36:54.067Z,85.80
2019-01-02T04:41:51.098Z,85.10
2019-01-02T04:44:19.751Z,85.90
2019-01-02T04:46:48.385Z,84.90
2019-01-02T04:49:17.068Z,85.10
2019-01-02T04:51:45.733Z,86.60
2019-01-02T04:54:14.428Z,87.30
2019-01-02T04:56:43.116Z,87.10
2019-01-02T04:59:11.756Z,84.50
2019-01-02T05:04:08.833Z,84.80
2019-01-02T05:06:37.478Z,85.00
2019-01-02T05:09:07.632Z,85.30
2019-01-02T05:11:36.266Z,84.20
2019-01-02T05:14:04.922Z,85.00
2019-01-02T05:16:33.556Z,85.10
2019-01-02T05:19:02.236Z,84.10
2019-01-02T05:21:31.197Z,83.00
2019-01-02T05:26:28.198Z,83.40
2019-01-02T05:28:56.849Z,84.80
2019-01-02T05:31:25.570Z,85.30
2019-01-02T05:33:54.239Z,85.70
2019-01-02T05:36:22.876Z,85.40
2019-01-02T05:38:51.529Z,86.60
2019-01-02T05:41:20.185Z,86.40
2019-01-02T05:43:48.836Z,85.30
2019-01-02T05:48:45.816Z,86.30
2019-01-02T05:51:14.708Z,87.40
2019-01-02T05:53:43.601Z,87.50
2019-01-02T05:56:12.352Z,87.60
2019-01-02T05:58:40.991Z,87.30
2019-01-02T06:01:09.689Z,86.60
2019-01-02T06:03:38.340Z,86.50
2019-01-02T06:06:07.298Z,85.60
2019-01-02T06:11:04.505Z,85.70
2019-01-02T06:13:33.172Z,85.50
2019-01-02T06:16:01.864Z,85.80
2019-01-02T06:18:30.572Z,87.20
2019-01-02T06:20:59.549Z,87.60
2019-01-02T06:23:28.188Z,87.20
2019-01-02T06:25:56.832Z,86.90
2019-01-02T06:28:25.509Z,85.60
2019-01-02T06:33:22.602Z,86.10
2019-01-02T06:35:51.245Z,86.90
2019-01-02T06:38:19.934Z,86.30
2019-01-02T06:40:48.875Z,86.30
2019-01-02T06:43:17.549Z,87.10
2019-01-02T06:45:46.466Z,87.40
2019-01-02T06:48:15.158Z,84.30
2019-01-02T06:53:12.166Z,83.70
2019-01-02T06:55:41.061Z,85.40
2019-01-02T06:58:09.716Z,85.50
2019-01-02T07:00:40.392Z,85.20
2019-01-02T07:03:09.151Z,84.50
2019-01-02T07:05:37.879Z,84.40
2019-01-02T07:08:06.540Z,84.90
2019-01-02T07:10:35.187Z,84.50
2019-01-02T07:15:32.193Z,84.10
2019-01-02T07:18:00.904Z,84.70
2019-01-02T07:20:29.623Z,85.70
2019-01-02T07:22:58.280Z,86.60
2019-01-02T07:25:27.206Z,85.70
2019-01-02T07:27:55.924Z,85.50
2019-01-02T07:30:25.168Z,85.40
2019-01-02T07:32:53.859Z,84.30
2019-01-02T07:38:44.609Z,83.90
2019-01-02T07:41:49.999Z,85.70
2019-01-02T07:45:10.137Z,84.50
2019-01-02T07:48:22.903Z,85.80
2019-01-02T07:51:23.188Z,86.10
2019-01-02T07:54:42.049Z,85.50
2019-01-02T07:57:37.256Z,86.60
2019-01-02T08:01:01.005Z,87.40
2019-01-02T08:04:01.930Z,86.70
2019-01-02T08:07:05.897Z,85.40
2019-01-02T08:10:11.608Z,86.10
2019-01-02T08:13:23.000Z,85.70
2019-01-02T08:16:19.871Z,86.20
2019-01-02T08:19:37.818Z,86.90
2019-01-02T08:22:38.999Z,85.90
2019-01-02T08:25:30.766Z,85.80
2019-01-02T08:28:36.532Z,86.40
2019-01-02T08:31:24.583Z,85.50
2019-01-02T08:34:35.538Z,84.80
2019-01-02T08:37:24.023Z,85.20
2019-01-02T08:40:34.177Z,85.60
2019-01-02T08:43:15.092Z,96.10
2019-01-02T08:46:33.966Z,85.80
2019-01-02T08:52:31.241Z,87.60
2019-01-02T08:55:35.335Z,90.40
2019-01-02T08:58:41.598Z,91.00
2019-01-02T09:01:50.463Z,90.90
2019-01-02T09:05:06.676Z,91.10
2019-01-02T09:08:31.519Z,90.80
2019-01-02T09:11:33.616Z,90.30
2019-01-02T09:14:34.420Z,90.10
2019-01-02T09:17:59.866Z,90.30
2019-01-02T09:21:09.363Z,90.00
2019-01-02T09:24:32.903Z,89.10
2019-01-02T09:30:38.393Z,88.80
2019-01-02T09:34:02.240Z,88.50
2019-01-02T09:37:16.406Z,88.80
2019-01-02T09:40:37.417Z,90.00
2019-01-02T09:43:46.623Z,90.40
2019-01-02T09:46:57.160Z,90.70
2019-01-02T09:49:51.640Z,89.50
2019-01-02T09:52:57.900Z,90.70
2019-01-02T09:56:03.628Z,91.80
2019-01-02T09:58:58.685Z,92.10
2019-01-02T10:02:04.500Z,91.70
2019-01-02T10:05:06.362Z,91.80
2019-01-02T10:08:13.098Z,91.10
2019-01-02T10:13:43.704Z,90.40
2019-01-02T10:16:59.588Z,90.10
2019-01-02T10:19:53.336Z,90.20
2019-01-02T10:23:02.971Z,89.90
2019-01-02T10:26:16.717Z,89.10
2019-01-02T10:29:02.605Z,88.30
2019-01-02T10:31:54.515Z,87.60
2019-01-02T10:37:52.742Z,87.60
2019-01-02T10:40:54.337Z,88.00
2019-01-02T10:43:56.413Z,88.20
2019-01-02T10:47:07.677Z,86.00
2019-01-02T10:50:24.236Z,87.30
2019-01-02T10:53:26.393Z,87.70
2019-01-02T10:56:44.015Z,86.10
2019-01-02T10:59:47.026Z,84.90
2019-01-02T11:02:48.576Z,85.70
2019-01-02T11:08:54.973Z,84.20
2019-01-02T11:12:09.426Z,84.70
2019-01-02T11:14:51.549Z,84.60
2019-01-02T11:17:48.900Z,82.80
2019-01-02T11:20:57.402Z,82.40
2019-01-02T11:24:04.708Z,82.50
2019-01-02T11:27:02.600Z,81.50
2019-01-02T11:30:36.639Z,81.70
2019-01-02T11:33:35.147Z,81.50
2019-01-02T11:36:20.510Z,81.70
2019-01-02T11:41:51.661Z,80.80
2019-01-02T11:44:45.849Z,80.30
2019-01-02T11:47:14.563Z,80.90
2019-01-02T11:49:43.225Z,81.40
2019-01-02T11:52:11.864Z,82.10
2019-01-02T11:54:40.528Z,82.90
2019-01-02T11:57:09.248Z,81.60
2019-01-02T11:59:37.933Z,79.70
2019-01-02T12:04:35.888Z,80.00
2019-01-02T12:07:04.886Z,80.70
2019-01-02T12:09:33.624Z,78.60
2019-01-02T12:12:02.253Z,80.00
2019-01-02T12:14:31.030Z,80.10
2019-01-02T12:16:59.784Z,79.40
2019-01-02T12:19:28.410Z,80.50
2019-01-02T12:21:57.117Z,79.60
2019-01-02T12:26:54.276Z,79.20
2019-01-02T12:29:25.385Z,79.70
2019-01-02T12:31:54.093Z,79.80
2019-01-02T12:34:22.737Z,79.00
2019-01-02T12:36:51.472Z,79.40
2019-01-02T12:39:20.129Z,79.30
2019-01-02T12:41:48.848Z,80.10
2019-01-02T12:44:18.329Z,78.80
2019-01-02T12:49:15.452Z,78.20
2019-01-02T12:51:44.141Z,79.00
2019-01-02T12:54:12.823Z,78.60
2019-01-02T12:56:41.453Z,79.90
2019-01-02T12:59:14.092Z,79.20
2019-01-02T13:02:22.234Z,78.80
2019-01-02T13:05:09.210Z,78.60
2019-01-02T13:08:07.660Z,77.00
2019-01-02T13:10:57.852Z,78.90
2019-01-02T13:14:00.827Z,79.60
2019-01-02T13:16:38.135Z,80.30
2019-01-02T13:19:42.455Z,78.90
2019-01-02T13:22:43.333Z,78.80
2019-01-02T13:25:24.913Z,78.40
2019-01-02T13:28:50.339Z,79.10
2019-01-02T13:31:45.893Z,78.70
2019-01-02T13:35:08.189Z,79.10
2019-01-02T13:38:05.502Z,79.70
2019-01-02T13:41:26.484Z,80.60
2019-01-02T13:44:29.141Z,80.60
2019-01-02T13:47:14.252Z,82.10
2019-01-02T13:50:19.944Z,82.20
2019-01-02T13:52:48.653Z,81.80
2019-01-02T13:57:46.711Z,82.10
2019-01-02T14:00:15.369Z,85.30
2019-01-02T14:02:44.052Z,85.20
2019-01-02T14:05:16.225Z,86.20
2019-01-02T14:07:44.950Z,86.60
2019-01-02T14:10:13.600Z,90.30
2019-01-02T14:12:42.350Z,90.30
2019-01-02T14:15:11.039Z,91.30
2019-01-02T14:20:08.020Z,91.40
2019-01-02T14:22:36.720Z,92.10
2019-01-02T14:25:05.481Z,92.80
2019-01-02T14:27:34.372Z,93.30
2019-01-02T14:30:03.025Z,93.10
2019-01-02T14:32:31.753Z,91.90
2019-01-02T14:35:00.643Z,91.60
2019-01-02T14:37:29.339Z,90.90
2019-01-02T14:42:26.400Z,90.20
2019-01-02T14:44:55.096Z,91.30
2019-01-02T14:47:23.815Z,90.60
2019-01-02T14:49:52.464Z,90.00
2019-01-02T14:52:21.119Z,90.00
2019-01-02T14:54:49.755Z,89.70
2019-01-02T14:57:18.391Z,90.00
2019-01-02T14:59:47.039Z,90.10
2019-01-02T15:04:43.973Z,91.10
2019-01-02T15:07:12.616Z,92.30
2019-01-02T15:09:41.260Z,91.70
2019-01-02T15:12:09.916Z,91.40
2019-01-02T15:14:38.574Z,91.20
2019-01-02T15:17:07.258Z,90.50
2019-01-02T15:19:36.116Z,90.30
2019-01-02T15:22:05.067Z,89.40
2019-01-02T15:27:02.179Z,90.30
2019-01-02T15:29:30.843Z,90.80
2019-01-02T15:31:59.506Z,90.50
2019-01-02T15:34:28.153Z,89.60
2019-01-02T15:36:56.800Z,88.40
2019-01-02T15:39:25.492Z,87.80
2019-01-02T15:41:54.218Z,86.50
2019-01-02T15:44:22.861Z,83.70
2019-01-02T15:49:20.218Z,83.80
2019-01-02T15:51:48.856Z,84.50
2019-01-02T15:54:17.510Z,84.30
2019-01-02T15:56:46.156Z,83.90
2019-01-02T15:59:14.941Z,85.10
2019-01-02T16:01:43.628Z,84.80
2019-01-02T16:04:12.272Z,85.10
2019-01-02T16:06:40.920Z,83.30
2019-01-02T16:11:38.008Z,83.10
2019-01-02T16:14:06.722Z,84.20
2019-01-02T16:16:35.396Z,84.10
2019-01-02T16:19:04.048Z,84.10
2019-01-02T16:21:32.776Z,83.60
2019-01-02T16:24:01.427Z,83.70
2019-01-02T16:26:30.385Z,83.80
2019-01-02T16:31:27.411Z,83.40
2019-01-02T16:33:56.088Z,85.00
2019-01-02T16:36:24.741Z,85.40
2019-01-02T16:38:53.415Z,85.00
2019-01-02T16:41:22.091Z,86.60
2019-01-02T16:43:50.811Z,87.30
2019-01-02T16:46:19.891Z,88.00
2019-01-02T16:48:48.531Z,85.60
2019-01-02T16:53:45.447Z,85.30
2019-01-02T16:56:14.182Z,84.10
2019-01-02T16:58:42.875Z,84.30
2019-01-02T17:01:11.567Z,84.00
2019-01-02T17:03:40.225Z,81.40
2019-01-02T17:06:08.856Z,80.50
2019-01-02T17:08:37.519Z,79.70
2019-01-02T17:11:06.432Z,78.00
2019-01-02T17:16:03.406Z,78.00
2019-01-02T17:18:32.045Z,78.70
2019-01-02T17:21:00.694Z,78.60
2019-01-02T17:23:29.344Z,78.20
2019-01-02T17:25:58.013Z,78.60
2019-01-02T17:28:26.707Z,79.00
2019-01-02T17:30:55.386Z,79.00
2019-01-02T17:33:24.283Z,78.00
2019-01-02T17:38:21.258Z,79.20
2019-01-02T17:40:49.954Z,79.10
2019-01-02T17:43:18.683Z,78.30
2019-01-02T17:45:47.344Z,78.30
2019-01-02T17:48:16.236Z,79.30
2019-01-02T17:50:44.920Z,79.60
2019-01-02T17:53:13.820Z,80.00
2019-01-02T17:55:42.721Z,78.80
2019-01-02T18:00:39.956Z,79.30
2019-01-02T18:03:08.645Z,80.30
2019-01-02T18:05:37.576Z,79.10
2019-01-02T18:08:06.287Z,78.90
2019-01-02T18:10:34.961Z,77.60
2019-01-02T18:13:03.687Z,77.60
2019-01-02T18:15:32.411Z,77.60
2019-01-02T18:18:01.347Z,77.00
2019-01-02T18:22:58.254Z,78.20
2019-01-02T18:25:26.892Z,78.30
2019-01-02T18:27:55.630Z,78.80
2019-01-02T18:30:24.561Z,79.00
2019-01-02T18:32:53.277Z,78.70
2019-01-02T18:35:22.184Z,79.50
2019-01-02T18:37:50.837Z,79.40
2019-01-02T18:40:20.859Z,78.60
2019-01-02T18:45:18.151Z,78.60
2019-01-02T18:47:47.049Z,79.80
2019-01-02T18:50:15.713Z,79.30
2019-01-02T18:52:44.423Z,79.30
2019-01-02T18:55:13.068Z,79.30
2019-01-02T18:57:41.840Z,79.80
2019-01-02T19:00:12.386Z,80.00
2019-01-02T19:02:41.057Z,79.00
2019-01-02T19:07:37.994Z,79.70
2019-01-02T19:10:06.921Z,80.30
2019-01-02T19:12:35.568Z,79.60
2019-01-02T19:15:04.726Z,83.80
2019-01-02T19:17:33.376Z,80.70
2019-01-02T19:20:02.074Z,77.40
2019-01-02T19:22:30.985Z,76.50
2019-01-02T19:24:59.876Z,76.50
2019-01-02T19:29:56.889Z,77.10
2019-01-02T19:32:25.586Z,78.60
2019-01-02T19:34:54.305Z,78.70
2019-01-02T19:37:22.952Z,78.40
2019-01-02T19:39:51.591Z,78.40
2019-01-02T19:42:20.268Z,78.20
2019-01-02T19:44:48.933Z,78.20
2019-01-02T19:47:17.624Z,77.60
2019-01-02T19:52:14.689Z,77.80
2019-01-02T19:54:43.364Z,78.50
2019-01-02T19:57:12.076Z,78.50
2019-01-02T19:59:40.711Z,78.40
2019-01-02T20:02:09.361Z,78.60
2019-01-02T20:04:38.114Z,78.60
2019-01-02T20:07:07.785Z,78.00
2019-01-02T20:09:36.647Z,76.40
2019-01-02T20:14:33.640Z,77.00
2019-01-02T20:17:02.398Z,78.00
2019-01-02T20:19:31.044Z,78.20
2019-01-02T20:21:59.730Z,77.80
2019-01-02T20:24:28.712Z,78.00
2019-01-02T20:26:57.445Z,78.20
2019-01-02T20:29:26.079Z,77.40
2019-01-02T20:34:23.356Z,76.50
2019-01-02T20:36:52.061Z,77.60
2019-01-02T20:39:20.701Z,77.00
2019-01-02T20:41:49.400Z,77.20
2019-01-02T20:44:18.085Z,76.90
2019-01-02T20:46:46.752Z,78.10
2019-01-02T20:49:15.456Z,77.20
2019-01-02T20:51:44.099Z,76.70
2019-01-02T20:56:41.272Z,76.50
2019-01-02T20:59:09.940Z,76.70
2019-01-02T21:01:38.605Z,77.40
2019-01-02T21:04:07.261Z,77.30
2019-01-02T21:06:36.034Z,76.70
2019-01-02T21:09:07.369Z,76.80
2019-01-02T21:11:36.036Z,76.20
2019-01-02T21:14:04.671Z,75.10
2019-01-02T21:19:01.661Z,75.10
2019-01-02T21:21:30.321Z,75.90
2019-01-02T21:23:59.256Z,75.80
2019-01-02T21:26:27.908Z,75.70
2019-01-02T21:28:56.554Z,75.30
2019-01-02T21:31:25.332Z,75.30
2019-01-02T21:33:53.977Z,75.90
2019-01-02T21:36:22.731Z,93.50
2019-01-02T21:41:19.913Z,75.10
2019-01-02T21:43:48.575Z,74.90
2019-01-02T21:46:17.300Z,74.70
2019-01-02T21:48:45.935Z,74.70
2019-01-02T21:51:14.813Z,73.20
2019-01-02T21:53:43.838Z,73.30
2019-01-02T21:56:12.482Z,73.70
2019-01-02T21:58:41.155Z,77.50
2019-01-02T22:03:38.078Z,72.00
2019-01-02T22:06:07.040Z,72.30
2019-01-02T22:08:35.788Z,72.80
2019-01-02T22:11:04.451Z,73.40
2019-01-02T22:13:33.117Z,73.60
2019-01-02T22:16:01.908Z,73.80
2019-01-02T22:18:30.861Z,73.80
2019-01-02T22:23:28.174Z,73.50
2019-01-02T22:25:56.912Z,74.80
2019-01-02T22:28:25.968Z,75.10
2019-01-02T22:30:55.123Z,74.50
2019-01-02T22:33:24.297Z,74.40
2019-01-02T22:35:53.464Z,74.80
2019-01-02T22:38:25.804Z,75.20
2019-01-02T22:40:54.685Z,74.10
2019-01-02T22:43:23.693Z,73.80
2019-01-02T22:48:20.871Z,73.80
2019-01-02T22:50:49.939Z,73.90
2019-01-02T22:53:18.900Z,74.40
2019-01-02T22:55:47.645Z,73.60
2019-01-02T22:58:16.584Z,72.90
2019-01-02T23:01:03.033Z,72.80
2019-01-02T23:03:40.179Z,71.30
2019-01-02T23:09:15.060Z,70.30
2019-01-02T23:11:59.930Z,70.70
2019-01-02T23:15:02.696Z,71.00
2019-01-02T23:17:53.273Z,70.30
2019-01-02T23:20:47.285Z,70.00
2019-01-02T23:23:46.114Z,69.70
2019-01-02T23:26:32.599Z,70.40
2019-01-02T23:29:23.506Z,71.10
2019-01-02T23:32:07.564Z,71.30
2019-01-02T23:34:55.364Z,70.60
2019-01-02T23:37:52.663Z,70.90
2019-01-02T23:40:38.843Z,70.50
2019-01-02T23:46:24.958Z,70.10
2019-01-02T23:49:23.970Z,71.00
2019-01-02T23:52:18.088Z,71.80
2019-01-02T23:55:08.864Z,72.40
2019-01-02T23:58:07.130Z,72.20
